createdAt,value
2023-06-05T00:01:53.402Z,12.26
2023-06-05T00:04:25.756Z,12.81
2023-06-05T00:06:55.961Z,12.34
2023-06-05T00:09:25.721Z,11.99
2023-06-05T00:11:56.016Z,12.14
2023-06-05T00:14:25.965Z,12.21
2023-06-05T00:16:57.466Z,12.55
2023-06-05T00:19:30.963Z,12.79
2023-06-05T00:22:00.722Z,12.45
2023-06-05T00:24:30.603Z,12.58
2023-06-05T00:27:00.451Z,12.27
2023-06-05T00:29:30.575Z,11.81
2023-06-05T00:32:00.494Z,11.69
2023-06-05T00:34:33.114Z,12.02
2023-06-05T00:37:02.886Z,11.64
2023-06-05T00:39:32.591Z,11.47
2023-06-05T00:42:02.386Z,11.62
2023-06-05T00:44:32.101Z,11.15
2023-06-05T00:47:02.318Z,11.03
2023-06-05T00:49:35.849Z,11.39
2023-06-05T00:52:06.042Z,11.48
2023-06-05T00:54:36.494Z,11.38
2023-06-05T00:57:08.284Z,11.61
2023-06-05T00:59:41.787Z,12.06
2023-06-05T01:02:11.745Z,11.27
2023-06-05T01:04:45.009Z,11.30
2023-06-05T01:07:15.395Z,11.96
2023-06-05T01:09:45.771Z,11.81
2023-06-05T01:12:21.956Z,11.46
2023-06-05T01:14:53.270Z,11.47
2023-06-05T01:17:25.768Z,12.11
2023-06-05T01:19:59.832Z,10.94
2023-06-05T01:22:29.936Z,11.68
2023-06-05T01:25:02.692Z,11.74
2023-06-05T01:27:39.088Z,11.46
2023-06-05T01:30:18.527Z,11.49
2023-06-05T01:32:57.142Z,11.47
2023-06-05T01:35:29.367Z,12.00
2023-06-05T01:38:03.926Z,11.61
2023-06-05T01:40:38.288Z,12.55
2023-06-05T01:43:11.293Z,11.81
2023-06-05T01:45:42.196Z,12.57
2023-06-05T01:48:12.558Z,11.26
2023-06-05T01:50:43.673Z,10.84
2023-06-05T01:53:14.040Z,10.40
2023-06-05T01:55:47.904Z,11.01
2023-06-05T01:58:18.069Z,10.24
2023-06-05T02:00:48.085Z,9.57
2023-06-05T02:03:20.821Z,9.65
2023-06-05T02:05:52.478Z,10.01
2023-06-05T02:08:24.052Z,9.76
2023-06-05T02:10:56.865Z,9.59
2023-06-05T02:13:28.941Z,9.37
2023-06-05T02:15:58.820Z,9.29
2023-06-05T02:18:30.822Z,9.68
2023-06-05T02:21:00.589Z,9.68
2023-06-05T02:23:30.805Z,10.04
2023-06-05T02:26:03.206Z,9.66
2023-06-05T02:28:33.316Z,9.86
2023-06-05T02:31:03.719Z,9.61
2023-06-05T02:33:33.468Z,9.16
2023-06-05T02:36:03.209Z,9.40
2023-06-05T02:38:33.187Z,9.05
2023-06-05T02:41:05.778Z,9.47
2023-06-05T02:43:35.568Z,9.94
2023-06-05T02:46:05.543Z,9.67
2023-06-05T02:48:35.626Z,9.94
2023-06-05T02:51:07.842Z,9.07
2023-06-05T02:53:38.026Z,9.02
2023-06-05T02:56:10.455Z,9.24
2023-06-05T02:58:40.952Z,9.58
2023-06-05T03:01:12.603Z,9.28
2023-06-05T03:03:50.047Z,9.76
2023-06-05T03:06:28.412Z,9.98
2023-06-05T03:08:59.435Z,9.39
2023-06-05T03:11:32.595Z,9.23
2023-06-05T03:14:02.957Z,9.10
2023-06-05T03:16:42.599Z,9.81
2023-06-05T03:19:13.295Z,9.85
2023-06-05T03:21:45.055Z,10.65
2023-06-05T03:24:18.087Z,10.62
2023-06-05T03:26:55.971Z,10.04
2023-06-05T03:29:26.670Z,10.08
2023-06-05T03:31:56.614Z,9.56
2023-06-05T03:34:27.114Z,10.47
2023-06-05T03:37:01.220Z,10.78
2023-06-05T03:39:32.265Z,10.84
2023-06-05T03:42:08.140Z,11.00
2023-06-05T03:44:37.994Z,10.90
2023-06-05T03:47:09.304Z,12.33
2023-06-05T03:49:47.250Z,11.93
2023-06-05T03:52:24.757Z,11.35
2023-06-05T03:54:56.884Z,11.61
2023-06-05T03:57:29.450Z,11.39
2023-06-05T03:59:59.244Z,11.83
2023-06-05T04:02:29.254Z,12.44
2023-06-05T04:04:59.122Z,12.11
2023-06-05T04:07:29.338Z,12.44
2023-06-05T04:09:59.388Z,12.27
2023-06-05T04:12:31.997Z,11.99
2023-06-05T04:15:03.839Z,12.59
2023-06-05T04:17:33.932Z,12.48
2023-06-05T04:20:04.223Z,12.36
2023-06-05T04:22:35.330Z,12.66
2023-06-05T04:25:05.101Z,12.53
2023-06-05T04:27:37.874Z,12.72
2023-06-05T04:30:09.638Z,12.66
2023-06-05T04:32:40.767Z,12.92
2023-06-05T04:35:12.813Z,13.81
2023-06-05T04:37:42.918Z,13.64
2023-06-05T04:40:12.911Z,14.17
2023-06-05T04:42:46.131Z,13.93
2023-06-05T04:45:17.878Z,14.96
2023-06-05T04:47:50.962Z,14.93
2023-06-05T04:50:27.395Z,15.05
2023-06-05T04:53:10.153Z,14.72
2023-06-05T04:55:41.190Z,15.77
2023-06-05T04:58:14.602Z,15.23
2023-06-05T05:00:45.681Z,15.03
2023-06-05T05:03:18.843Z,16.71
2023-06-05T05:05:49.427Z,16.41
2023-06-05T05:08:21.944Z,16.57
2023-06-05T05:10:51.809Z,16.75
2023-06-05T05:13:24.294Z,17.45
2023-06-05T05:15:55.647Z,18.65
2023-06-05T05:18:25.449Z,18.75
2023-06-05T05:20:55.246Z,19.48
2023-06-05T05:23:27.267Z,18.67
2023-06-05T05:25:57.141Z,18.68
2023-06-05T05:28:29.700Z,19.13
2023-06-05T05:31:00.034Z,19.27
2023-06-05T05:33:29.799Z,18.83
2023-06-05T05:35:59.703Z,19.26
2023-06-05T05:38:29.404Z,19.92
2023-06-05T05:40:59.146Z,20.13
2023-06-05T05:43:31.692Z,20.07
2023-06-05T05:46:01.456Z,19.41
2023-06-05T05:48:32.045Z,20.07
2023-06-05T05:51:01.917Z,20.08
2023-06-05T05:53:31.975Z,20.23
2023-06-05T05:56:01.962Z,20.39
2023-06-05T05:58:34.298Z,20.16
2023-06-05T06:01:04.298Z,20.62
2023-06-05T06:03:34.896Z,20.71
2023-06-05T06:06:04.939Z,19.68
2023-06-05T06:08:34.688Z,19.19
2023-06-05T06:11:05.278Z,20.74
2023-06-05T06:13:37.742Z,21.29
2023-06-05T06:16:07.858Z,20.86
2023-06-05T06:18:37.651Z,21.39
2023-06-05T06:21:08.326Z,21.75
2023-06-05T06:23:38.208Z,21.49
2023-06-05T06:26:09.387Z,19.12
2023-06-05T06:28:41.714Z,19.82
2023-06-05T06:31:11.920Z,20.94
2023-06-05T06:33:41.998Z,21.53
2023-06-05T06:36:11.901Z,20.45
2023-06-05T06:38:41.626Z,21.78
2023-06-05T06:41:11.463Z,20.98
2023-06-05T06:43:43.833Z,18.99
2023-06-05T06:46:14.966Z,20.84
2023-06-05T06:48:44.871Z,20.87
2023-06-05T06:51:14.615Z,21.22
2023-06-05T06:53:44.439Z,20.32
2023-06-05T06:56:16.385Z,20.76
2023-06-05T06:58:49.383Z,20.43
2023-06-05T07:01:21.091Z,20.11
2023-06-05T07:03:50.909Z,20.69
2023-06-05T07:06:23.013Z,20.87
2023-06-05T07:08:52.982Z,20.32
2023-06-05T07:11:23.017Z,22.16
2023-06-05T07:13:55.645Z,21.01
2023-06-05T07:16:25.387Z,22.85
2023-06-05T07:18:56.302Z,23.37
2023-06-05T07:21:26.228Z,20.97
2023-06-05T07:23:55.960Z,23.40
2023-06-05T07:26:25.774Z,23.26
2023-06-05T07:28:58.078Z,23.01
2023-06-05T07:31:27.832Z,24.22
2023-06-05T07:33:57.607Z,23.49
2023-06-05T07:36:27.359Z,24.05
2023-06-05T07:38:57.718Z,26.37
2023-06-05T07:41:27.484Z,24.65
2023-06-05T07:43:59.901Z,23.88
2023-06-05T07:46:29.705Z,22.77
2023-06-05T07:49:02.323Z,21.06
2023-06-05T07:51:36.912Z,22.69
2023-06-05T07:54:06.732Z,20.76
2023-06-05T07:56:37.806Z,23.35
2023-06-05T07:59:11.807Z,21.75
2023-06-05T08:01:42.322Z,22.58
2023-06-05T08:04:13.234Z,23.30
2023-06-05T08:06:43.216Z,22.31
2023-06-05T08:09:13.433Z,22.33
2023-06-05T08:11:43.544Z,22.69
2023-06-05T08:14:15.891Z,21.83
2023-06-05T08:16:45.641Z,22.84
2023-06-05T08:19:15.413Z,23.55
2023-06-05T08:21:45.181Z,24.16
2023-06-05T08:24:14.873Z,25.09
2023-06-05T08:26:44.599Z,24.70
2023-06-05T08:29:16.955Z,23.30
2023-06-05T08:31:46.767Z,24.65
2023-06-05T08:34:16.565Z,24.78
2023-06-05T08:36:46.337Z,24.79
2023-06-05T08:39:16.719Z,24.53
2023-06-05T08:41:47.038Z,25.51
2023-06-05T08:44:19.439Z,26.35
2023-06-05T08:46:50.579Z,24.64
2023-06-05T08:49:25.534Z,24.57
2023-06-05T08:51:57.425Z,23.90
2023-06-05T08:54:27.305Z,24.80
2023-06-05T08:56:57.273Z,25.28
2023-06-05T08:59:30.337Z,24.52
2023-06-05T09:02:00.374Z,23.03
2023-06-05T09:04:31.577Z,22.82
2023-06-05T09:07:01.750Z,24.70
2023-06-05T09:09:31.554Z,23.86
2023-06-05T09:12:09.979Z,23.26
2023-06-05T09:14:42.378Z,22.41
2023-06-05T09:17:18.135Z,22.22
2023-06-05T09:19:48.596Z,22.23
2023-06-05T09:22:19.996Z,22.42
2023-06-05T09:25:02.642Z,22.16
2023-06-05T09:27:32.425Z,22.45
2023-06-05T09:30:09.207Z,22.29
2023-06-05T09:32:40.629Z,22.39
2023-06-05T09:35:12.587Z,22.56
2023-06-05T09:37:46.912Z,22.79
2023-06-05T09:40:18.345Z,23.46
2023-06-05T09:42:48.141Z,22.46
2023-06-05T09:45:20.660Z,22.68
2023-06-05T09:47:54.346Z,22.85
2023-06-05T09:50:26.237Z,23.29
2023-06-05T09:52:58.829Z,24.43
2023-06-05T09:55:29.652Z,24.38
2023-06-05T09:58:03.576Z,24.40
2023-06-05T10:00:37.931Z,23.74
2023-06-05T10:03:12.089Z,24.33
2023-06-05T10:05:43.990Z,24.94
2023-06-05T10:08:15.367Z,24.07
2023-06-05T10:10:46.252Z,23.19
2023-06-05T10:13:19.440Z,23.45
2023-06-05T10:15:56.089Z,24.12
2023-06-05T10:18:26.630Z,23.59
2023-06-05T10:20:57.883Z,23.70
2023-06-05T10:23:28.861Z,22.49
2023-06-05T10:25:59.838Z,23.17
2023-06-05T10:28:43.867Z,24.10
2023-06-05T10:31:27.836Z,24.29
2023-06-05T10:34:07.977Z,23.91
2023-06-05T10:36:58.202Z,23.64
2023-06-05T10:39:29.915Z,23.29
2023-06-05T10:42:00.343Z,23.18
2023-06-05T10:44:45.971Z,23.08
2023-06-05T10:47:46.888Z,22.96
2023-06-05T10:50:32.409Z,23.54
2023-06-05T10:53:02.434Z,23.82
2023-06-05T10:55:45.743Z,24.12
2023-06-05T10:58:18.012Z,24.19
2023-06-05T11:01:19.700Z,24.26
2023-06-05T11:04:02.997Z,24.85
2023-06-05T11:06:35.798Z,24.31
2023-06-05T11:09:13.760Z,24.27
2023-06-05T11:12:00.199Z,24.56
2023-06-05T11:14:50.728Z,23.80
2023-06-05T11:17:30.669Z,23.95
2023-06-05T11:20:00.767Z,23.83
2023-06-05T11:22:36.903Z,23.82
2023-06-05T11:25:34.268Z,24.95
2023-06-05T11:28:06.824Z,24.07
2023-06-05T11:30:48.893Z,23.92
2023-06-05T11:33:22.770Z,23.33
2023-06-05T11:35:54.085Z,23.81
2023-06-05T11:38:26.910Z,25.33
2023-06-05T11:40:58.236Z,25.48
2023-06-05T11:43:28.016Z,25.52
2023-06-05T11:45:59.014Z,24.24
2023-06-05T11:48:29.882Z,25.36
2023-06-05T11:51:02.004Z,25.24
2023-06-05T11:53:38.515Z,25.60
2023-06-05T11:56:17.889Z,26.09
2023-06-05T11:58:48.281Z,25.03
2023-06-05T12:01:23.452Z,23.93
2023-06-05T12:04:06.360Z,23.77
2023-06-05T12:06:38.668Z,23.46
2023-06-05T12:09:15.718Z,23.00
2023-06-05T12:11:46.653Z,24.39
2023-06-05T12:14:17.864Z,25.07
2023-06-05T12:16:47.566Z,24.91
2023-06-05T12:19:19.757Z,23.84
2023-06-05T12:21:51.762Z,24.81
2023-06-05T12:24:29.845Z,24.54
2023-06-05T12:27:00.786Z,24.51
2023-06-05T12:29:32.290Z,24.56
2023-06-05T12:32:03.525Z,24.09
2023-06-05T12:37:31.259Z,25.05
2023-06-05T12:40:08.521Z,24.61
2023-06-05T12:42:39.475Z,24.96
2023-06-05T12:45:11.131Z,24.12
2023-06-05T12:47:42.605Z,24.17
2023-06-05T12:50:15.084Z,24.79
2023-06-05T12:52:45.550Z,25.04
2023-06-05T12:55:17.874Z,25.10
2023-06-05T12:57:47.762Z,24.71
2023-06-05T13:00:20.220Z,25.56
2023-06-05T13:02:50.142Z,25.18
2023-06-05T13:05:19.941Z,25.25
2023-06-05T13:07:51.016Z,25.19
2023-06-05T13:10:23.842Z,24.94
2023-06-05T13:12:53.766Z,24.92
2023-06-05T13:15:23.513Z,24.83
2023-06-05T13:17:53.267Z,25.09
2023-06-05T13:20:23.042Z,25.58
2023-06-05T13:22:52.915Z,25.45
2023-06-05T13:25:25.286Z,25.05
2023-06-05T13:27:55.097Z,25.10
2023-06-05T13:30:25.785Z,25.36
2023-06-05T13:32:55.895Z,24.60
2023-06-05T13:35:25.837Z,25.10
2023-06-05T13:37:55.532Z,24.81
2023-06-05T13:40:28.158Z,24.84
2023-06-05T13:42:58.007Z,25.38
2023-06-05T13:45:27.888Z,25.20
2023-06-05T13:47:57.969Z,25.86
2023-06-05T13:50:28.005Z,24.65
2023-06-05T13:52:57.789Z,24.82
2023-06-05T13:55:30.167Z,24.49
2023-06-05T13:58:02.631Z,24.32
2023-06-05T14:00:33.280Z,24.61
2023-06-05T14:03:03.391Z,24.87
2023-06-05T14:05:34.201Z,24.46
2023-06-05T14:08:03.964Z,24.71
2023-06-05T14:10:38.014Z,25.00
2023-06-05T14:13:08.265Z,26.04
2023-06-05T14:15:38.383Z,25.27
2023-06-05T14:18:10.734Z,25.14
2023-06-05T14:20:40.905Z,25.59
2023-06-05T14:23:11.700Z,25.96
2023-06-05T14:25:43.972Z,25.09
2023-06-05T14:28:13.725Z,25.68
2023-06-05T14:30:43.597Z,25.60
2023-06-05T14:33:14.272Z,25.84
2023-06-05T14:35:44.179Z,25.66
2023-06-05T14:38:14.339Z,25.62
2023-06-05T14:40:49.143Z,25.59
2023-06-05T14:43:18.894Z,25.84
2023-06-05T14:45:48.717Z,25.42
2023-06-05T14:48:18.526Z,25.92
2023-06-05T14:50:48.352Z,25.44
2023-06-05T14:53:18.107Z,26.22
2023-06-05T14:55:50.474Z,25.52
2023-06-05T14:58:20.639Z,26.01
2023-06-05T15:00:52.977Z,25.43
2023-06-05T15:03:26.010Z,25.33
2023-06-05T15:05:57.510Z,25.62
2023-06-05T15:08:28.577Z,25.19
2023-06-05T15:11:04.093Z,25.22
2023-06-05T15:13:33.919Z,25.81
2023-06-05T15:16:04.145Z,25.44
2023-06-05T15:18:33.881Z,25.47
2023-06-05T15:21:03.735Z,25.41
2023-06-05T15:23:33.659Z,25.02
2023-06-05T15:26:06.065Z,25.71
2023-06-05T15:28:36.023Z,26.21
2023-06-05T15:31:08.146Z,24.82
2023-06-05T15:33:38.471Z,25.44
2023-06-05T15:36:09.166Z,25.44
2023-06-05T15:38:39.253Z,25.51
2023-06-05T15:41:14.134Z,25.56
2023-06-05T15:43:44.738Z,24.95
2023-06-05T15:46:14.669Z,25.14
2023-06-05T15:48:44.459Z,24.74
2023-06-05T15:51:14.382Z,25.21
2023-06-05T15:53:55.830Z,25.26
2023-06-05T15:56:30.757Z,25.09
2023-06-05T15:59:00.511Z,25.00
2023-06-05T16:01:30.294Z,25.31
2023-06-05T16:04:00.293Z,25.08
2023-06-05T16:06:30.209Z,25.23
2023-06-05T16:09:00.621Z,25.09
2023-06-05T16:11:33.006Z,25.51
2023-06-05T16:14:03.882Z,25.64
2023-06-05T16:16:33.620Z,25.46
2023-06-05T16:19:04.345Z,25.13
2023-06-05T16:21:35.580Z,25.87
2023-06-05T16:24:05.533Z,25.60
2023-06-05T16:26:39.526Z,25.36
2023-06-05T16:29:09.498Z,25.23
2023-06-05T16:31:39.505Z,24.86
2023-06-05T16:34:15.959Z,24.80
2023-06-05T16:36:46.038Z,25.01
2023-06-05T16:39:17.016Z,25.19
2023-06-05T16:41:49.407Z,25.19
2023-06-05T16:44:19.510Z,25.44
2023-06-05T16:46:50.082Z,24.84
2023-06-05T16:49:20.048Z,25.15
2023-06-05T16:51:49.777Z,25.62
2023-06-05T16:54:21.393Z,24.86
2023-06-05T16:56:54.623Z,25.37
2023-06-05T16:59:24.442Z,25.10
2023-06-05T17:01:54.752Z,24.76
2023-06-05T17:04:25.255Z,25.26
2023-06-05T17:06:55.542Z,24.90
2023-06-05T17:09:28.239Z,25.09
2023-06-05T17:12:00.929Z,24.80
2023-06-05T17:14:30.736Z,24.56
2023-06-05T17:17:01.633Z,25.19
2023-06-05T17:19:33.829Z,24.69
2023-06-05T17:22:03.685Z,24.58
2023-06-05T17:24:34.158Z,24.35
2023-06-05T17:27:07.235Z,24.41
2023-06-05T17:29:36.997Z,24.62
2023-06-05T17:32:09.707Z,24.50
2023-06-05T17:34:39.874Z,24.51
2023-06-05T17:37:09.862Z,24.39
2023-06-05T17:39:39.603Z,24.64
2023-06-05T17:42:12.455Z,24.69
2023-06-05T17:44:42.291Z,24.36
2023-06-05T17:47:12.118Z,24.04
2023-06-05T18:01:56.926Z,24.46
2023-06-05T18:04:27.256Z,24.21
2023-06-05T18:06:57.322Z,24.83
2023-06-05T18:09:27.235Z,25.16
2023-06-05T18:11:56.970Z,24.98
2023-06-05T18:14:27.122Z,24.88
2023-06-05T18:16:59.848Z,24.94
2023-06-05T18:19:29.769Z,24.21
2023-06-05T18:21:59.768Z,24.18
2023-06-05T18:24:29.719Z,24.29
2023-06-05T18:26:59.686Z,24.33
2023-06-05T18:29:29.347Z,24.94
2023-06-05T18:32:01.877Z,23.82
2023-06-05T18:34:34.530Z,24.69
2023-06-05T18:37:04.287Z,24.41
2023-06-05T18:39:33.957Z,25.21
2023-06-05T18:42:03.740Z,25.54
2023-06-05T18:44:33.479Z,26.07
2023-06-05T18:47:06.383Z,25.60
2023-06-05T18:49:36.639Z,26.07
2023-06-05T18:52:07.623Z,26.26
2023-06-05T18:54:37.998Z,26.20
2023-06-05T18:57:08.708Z,24.80
2023-06-05T18:59:38.455Z,24.69
2023-06-05T19:02:10.967Z,24.17
2023-06-05T19:04:42.130Z,23.52
2023-06-05T19:07:11.806Z,24.15
2023-06-05T19:09:41.495Z,24.79
2023-06-05T19:12:12.267Z,25.00
2023-06-05T19:14:42.073Z,24.49
2023-06-05T19:17:14.540Z,23.24
2023-06-05T19:19:44.430Z,23.56
2023-06-05T19:22:14.161Z,24.29
2023-06-05T19:24:43.903Z,23.59
2023-06-05T19:27:13.608Z,22.83
2023-06-05T19:29:43.618Z,22.42
2023-06-05T19:32:15.993Z,21.63
2023-06-05T19:34:46.037Z,23.00
2023-06-05T19:37:16.214Z,21.98
2023-06-05T19:39:46.056Z,21.16
2023-06-05T19:42:15.817Z,21.39
2023-06-05T19:44:45.582Z,21.77
2023-06-05T19:47:18.007Z,22.58
2023-06-05T19:49:47.823Z,20.85
2023-06-05T19:52:17.563Z,21.69
2023-06-05T19:54:47.528Z,21.04
2023-06-05T19:57:17.383Z,20.66
2023-06-05T19:59:47.240Z,21.73
2023-06-05T20:02:19.527Z,21.55
2023-06-05T20:04:49.281Z,20.25
2023-06-05T20:07:19.006Z,20.64
2023-06-05T20:09:48.685Z,19.31
2023-06-05T20:12:18.584Z,18.44
2023-06-05T20:14:48.730Z,18.24
2023-06-05T20:17:21.225Z,17.87
2023-06-05T20:19:51.177Z,18.26
2023-06-05T20:22:21.573Z,18.32
2023-06-05T20:24:54.836Z,18.06
2023-06-05T20:27:24.513Z,17.93
2023-06-05T20:29:54.185Z,17.68
2023-06-05T20:32:26.469Z,17.47
2023-06-05T20:34:58.994Z,17.18
2023-06-05T20:37:31.634Z,17.38
2023-06-05T20:40:06.599Z,17.75
2023-06-05T20:42:36.946Z,17.72
2023-06-05T20:45:08.895Z,17.42
2023-06-05T20:47:42.279Z,17.38
2023-06-05T20:50:15.392Z,17.75
2023-06-05T20:52:45.104Z,16.88
2023-06-05T20:55:14.825Z,16.92
2023-06-05T20:57:44.568Z,17.35
2023-06-05T21:00:16.045Z,17.23
2023-06-05T21:02:48.678Z,16.90
2023-06-05T21:05:18.608Z,17.05
2023-06-05T21:07:49.416Z,17.45
2023-06-05T21:10:19.226Z,17.51
2023-06-05T21:12:48.990Z,17.12
2023-06-05T21:15:19.135Z,17.49
2023-06-05T21:17:51.880Z,17.08
2023-06-05T21:20:21.674Z,16.73
2023-06-05T21:22:51.346Z,17.00
2023-06-05T21:25:21.102Z,16.64
2023-06-05T21:27:50.774Z,17.67
2023-06-05T21:30:20.526Z,16.86
2023-06-05T21:32:53.602Z,16.85
2023-06-05T21:35:23.551Z,16.29
2023-06-05T21:37:53.587Z,16.05
2023-06-05T21:40:23.312Z,15.89
2023-06-05T21:42:53.391Z,15.84
2023-06-05T21:45:23.511Z,15.90
2023-06-05T21:47:55.988Z,15.69
2023-06-05T21:50:25.953Z,16.32
2023-06-05T21:52:56.140Z,16.35
2023-06-05T21:55:26.975Z,16.57
2023-06-05T21:57:57.903Z,16.33
2023-06-05T22:00:27.897Z,16.14
2023-06-05T22:03:00.284Z,16.27
2023-06-05T22:05:30.857Z,15.95
2023-06-05T22:08:03.128Z,15.89
2023-06-05T22:10:32.869Z,15.73
2023-06-05T22:13:02.597Z,15.40
2023-06-05T22:15:34.055Z,15.37
2023-06-05T22:18:07.068Z,15.58
2023-06-05T22:20:40.995Z,15.34
2023-06-05T22:23:10.717Z,15.49
2023-06-05T22:25:52.824Z,15.23
2023-06-05T22:28:23.019Z,14.99
2023-06-05T22:30:53.101Z,14.90
2023-06-05T22:33:25.725Z,15.31
2023-06-05T22:35:55.402Z,14.95
2023-06-05T22:38:27.033Z,14.85
2023-06-05T22:40:56.829Z,14.88
2023-06-05T22:43:26.595Z,14.90
2023-06-05T22:45:56.644Z,14.80
2023-06-05T22:48:30.108Z,14.58
2023-06-05T22:51:00.469Z,14.65
2023-06-05T22:53:31.719Z,14.81
2023-06-05T22:56:01.522Z,15.05
2023-06-05T22:58:31.250Z,14.50
2023-06-05T23:01:01.356Z,14.66
2023-06-05T23:03:34.594Z,14.55
2023-06-05T23:06:05.338Z,14.89
2023-06-05T23:08:35.050Z,14.57
2023-06-05T23:11:04.799Z,14.46
2023-06-05T23:13:34.484Z,14.83
2023-06-05T23:16:04.467Z,15.08
2023-06-05T23:18:36.749Z,15.09
2023-06-05T23:21:06.878Z,14.95
2023-06-05T23:23:36.563Z,15.21
2023-06-05T23:26:08.630Z,15.54
2023-06-05T23:28:38.950Z,15.86
2023-06-05T23:31:09.120Z,15.88
2023-06-05T23:33:41.536Z,15.86
2023-06-05T23:36:12.728Z,16.66
2023-06-05T23:38:42.481Z,16.49
2023-06-05T23:41:12.300Z,15.67
2023-06-05T23:43:42.918Z,16.32
2023-06-05T23:46:12.982Z,17.00
2023-06-05T23:48:45.281Z,15.30
2023-06-05T23:51:15.507Z,15.26
2023-06-05T23:53:45.215Z,16.04
2023-06-05T23:56:14.890Z,15.83
2023-06-05T23:58:44.721Z,15.40
